sensor_id;sensor_type;location;lat;lon;timestamp;pressure;altitude;pressure_sealevel;temperature;humidity
498;BME280;39559;48.630;9.162;2024-01-15T00:01:14;96454.75;;;-3.67;100.00
498;BME280;39559;48.630;9.162;2024-01-15T00:03:39;96455.56;;;-3.60;100.00
498;BME280;39559;48.630;9.162;2024-01-15T00:06:05;96458.94;;;-3.56;100.00
498;BME280;39559;48.630;9.162;2024-01-15T00:08:31;96440.28;;;-3.48;100.00
498;BME280;39559;48.630;9.162;2024-01-15T00:10:56;96446.19;;;-3.42;100.00
498;BME280;39559;48.630;9.162;2024-01-15T00:13:22;96440.22;;;-3.37;100.00
498;BME280;39559;48.630;9.162;2024-01-15T00:15:47;96435.94;;;-3.24;100.00
498;BME280;39559;48.630;9.162;2024-01-15T00:18:13;96431.72;;;-3.22;100.00
498;BME280;39559;48.630;9.162;2024-01-15T00:20:38;96437.59;;;-3.15;100.00
498;BME280;39559;48.630;9.162;2024-01-15T00:25:17;96439.25;;;-3.11;100.00
498;BME280;39559;48.630;9.162;2024-01-15T00:27:43;96438.34;;;-2.96;100.00
498;BME280;39559;48.630;9.162;2024-01-15T00:30:08;96433.28;;;-3.02;100.00
498;BME280;39559;48.630;9.162;2024-01-15T00:32:34;96435.09;;;-3.23;100.00
498;BME280;39559;48.630;9.162;2024-01-15T00:35:00;96433.38;;;-3.21;100.00
498;BME280;39559;48.630;9.162;2024-01-15T00:37:25;96424.09;;;-3.22;100.00
498;BME280;39559;48.630;9.162;2024-01-15T00:39:51;96427.47;;;-3.26;100.00
498;BME280;39559;48.630;9.162;2024-01-15T00:42:16;96423.22;;;-3.19;100.00
498;BME280;39559;48.630;9.162;2024-01-15T00:44:42;96421.53;;;-3.19;100.00
498;BME280;39559;48.630;9.162;2024-01-15T00:49:20;96425.81;;;-3.33;100.00
498;BME280;39559;48.630;9.162;2024-01-15T00:51:47;96416.56;;;-3.39;100.00
498;BME280;39559;48.630;9.162;2024-01-15T00:54:12;96416.59;;;-3.43;100.00
498;BME280;39559;48.630;9.162;2024-01-15T00:56:38;96419.09;;;-3.36;100.00
498;BME280;39559;48.630;9.162;2024-01-15T00:59:03;96416.59;;;-3.45;100.00
498;BME280;39559;48.630;9.162;2024-01-15T01:01:29;96422.50;;;-3.46;100.00
498;BME280;39559;48.630;9.162;2024-01-15T01:03:55;96430.16;;;-3.51;100.00
498;BME280;39559;48.630;9.162;2024-01-15T01:06:20;96430.94;;;-3.36;100.00
498;BME280;39559;48.630;9.162;2024-01-15T01:08:45;96441.03;;;-3.25;100.00
498;BME280;39559;48.630;9.162;2024-01-15T01:13:23;96435.09;;;-3.20;100.00
498;BME280;39559;48.630;9.162;2024-01-15T01:15:49;96429.19;;;-3.22;100.00
498;BME280;39559;48.630;9.162;2024-01-15T01:18:14;96420.69;;;-3.16;100.00
498;BME280;39559;48.630;9.162;2024-01-15T01:20:39;96427.47;;;-3.28;100.00
498;BME280;39559;48.630;9.162;2024-01-15T01:23:05;96426.66;;;-3.25;100.00
498;BME280;39559;48.630;9.162;2024-01-15T01:25:31;96422.44;;;-3.34;100.00
498;BME280;39559;48.630;9.162;2024-01-15T01:27:56;96430.06;;;-3.31;100.00
498;BME280;39559;48.630;9.162;2024-01-15T01:30:22;96434.34;;;-3.45;100.00
498;BME280;39559;48.630;9.162;2024-01-15T01:32:47;96431.78;;;-3.37;100.00
498;BME280;39559;48.630;9.162;2024-01-15T01:37:26;96419.97;;;-3.40;100.00
498;BME280;39559;48.630;9.162;2024-01-15T01:39:52;96417.47;;;-3.55;100.00
498;BME280;39559;48.630;9.162;2024-01-15T01:42:17;96423.38;;;-3.49;100.00
498;BME280;39559;48.630;9.162;2024-01-15T01:44:43;96417.47;;;-3.51;100.00
498;BME280;39559;48.630;9.162;2024-01-15T01:47:08;96416.63;;;-3.54;100.00
498;BME280;39559;48.630;9.162;2024-01-15T01:49:35;96408.16;;;-3.55;100.00
498;BME280;39559;48.630;9.162;2024-01-15T01:52:05;96419.97;;;-3.48;100.00
498;BME280;39559;48.630;9.162;2024-01-15T01:54:35;96419.13;;;-3.43;100.00
498;BME280;39559;48.630;9.162;2024-01-15T01:57:02;96428.41;;;-3.42;100.00
498;BME280;39559;48.630;9.162;2024-01-15T02:01:31;96420.78;;;-3.39;100.00
498;BME280;39559;48.630;9.162;2024-01-15T02:03:57;96421.63;;;-3.37;100.00
498;BME280;39559;48.630;9.162;2024-01-15T02:06:23;96419.91;;;-3.32;100.00
498;BME280;39559;48.630;9.162;2024-01-15T02:08:50;96418.22;;;-3.33;100.00
498;BME280;39559;48.630;9.162;2024-01-15T02:11:15;96411.47;;;-3.33;100.00
498;BME280;39559;48.630;9.162;2024-01-15T02:13:41;96414.78;;;-3.28;100.00
498;BME280;39559;48.630;9.162;2024-01-15T02:16:07;96411.41;;;-3.28;100.00
498;BME280;39559;48.630;9.162;2024-01-15T02:18:43;96419.91;;;-3.32;100.00
498;BME280;39559;48.630;9.162;2024-01-15T02:21:09;96415.72;;;-3.41;100.00
498;BME280;39559;48.630;9.162;2024-01-15T02:25:33;96402.19;;;-3.40;100.00
498;BME280;39559;48.630;9.162;2024-01-15T02:27:58;96399.56;;;-3.26;100.00
498;BME280;39559;48.630;9.162;2024-01-15T02:30:25;96404.63;;;-3.23;100.00
498;BME280;39559;48.630;9.162;2024-01-15T02:32:51;96397.84;;;-3.18;100.00
498;BME280;39559;48.630;9.162;2024-01-15T02:35:16;96404.63;;;-3.21;100.00
498;BME280;39559;48.630;9.162;2024-01-15T02:37:43;96400.31;;;-3.15;100.00
498;BME280;39559;48.630;9.162;2024-01-15T02:40:08;96402.91;;;-3.18;100.00
498;BME280;39559;48.630;9.162;2024-01-15T02:42:34;96405.44;;;-3.16;100.00
498;BME280;39559;48.630;9.162;2024-01-15T02:45:00;96407.09;;;-3.12;100.00
498;BME280;39559;48.630;9.162;2024-01-15T02:49:36;96407.94;;;-3.15;100.00
498;BME280;39559;48.630;9.162;2024-01-15T02:52:01;96407.13;;;-3.17;100.00
498;BME280;39559;48.630;9.162;2024-01-15T02:54:27;96392.69;;;-3.12;100.00
498;BME280;39559;48.630;9.162;2024-01-15T02:56:53;96396.13;;;-3.16;100.00
498;BME280;39559;48.630;9.162;2024-01-15T02:59:19;96391.00;;;-3.11;100.00
498;BME280;39559;48.630;9.162;2024-01-15T03:01:44;96396.13;;;-3.16;100.00
498;BME280;39559;48.630;9.162;2024-01-15T03:04:10;96382.53;;;-3.13;100.00
498;BME280;39559;48.630;9.162;2024-01-15T03:06:35;96384.25;;;-3.14;100.00
498;BME280;39559;48.630;9.162;2024-01-15T03:09:01;96383.38;;;-3.10;100.00
498;BME280;39559;48.630;9.162;2024-01-15T03:13:39;96385.06;;;-3.09;100.00
498;BME280;39559;48.630;9.162;2024-01-15T03:16:05;96382.53;;;-3.13;100.00
498;BME280;39559;48.630;9.162;2024-01-15T03:18:31;96377.47;;;-3.09;100.00
498;BME280;39559;48.630;9.162;2024-01-15T03:20:56;96394.41;;;-3.14;100.00
498;BME280;39559;48.630;9.162;2024-01-15T03:23:22;96386.72;;;-3.03;100.00
498;BME280;39559;48.630;9.162;2024-01-15T03:25:47;96384.19;;;-3.08;100.00
498;BME280;39559;48.630;9.162;2024-01-15T03:28:14;96381.72;;;-3.12;100.00
498;BME280;39559;48.630;9.162;2024-01-15T03:30:39;96373.19;;;-3.05;100.00
498;BME280;39559;48.630;9.162;2024-01-15T03:33:05;96370.69;;;-3.10;100.00
498;BME280;39559;48.630;9.162;2024-01-15T03:37:42;96372.31;;;-3.02;100.00
498;BME280;39559;48.630;9.162;2024-01-15T03:40:08;96374.91;;;-3.07;100.00
498;BME280;39559;48.630;9.162;2024-01-15T03:42:33;96367.31;;;-3.10;100.00
498;BME280;39559;48.630;9.162;2024-01-15T03:44:59;96371.56;;;-3.12;100.00
498;BME280;39559;48.630;9.162;2024-01-15T03:47:26;96364.75;;;-3.09;100.00
498;BME280;39559;48.630;9.162;2024-01-15T03:49:51;96369.75;;;-2.95;100.00
498;BME280;39559;48.630;9.162;2024-01-15T03:52:17;96371.41;;;-2.91;100.00
498;BME280;39559;48.630;9.162;2024-01-15T03:54:42;96372.31;;;-3.01;100.00
498;BME280;39559;48.630;9.162;2024-01-15T03:57:08;96367.28;;;-3.07;100.00
498;BME280;39559;48.630;9.162;2024-01-15T04:01:49;96360.34;;;-2.82;100.00
498;BME280;39559;48.630;9.162;2024-01-15T04:04:18;96367.81;;;-2.68;100.00
498;BME280;39559;48.630;9.162;2024-01-15T04:06:43;96351.00;;;-2.80;100.00
498;BME280;39559;48.630;9.162;2024-01-15T04:09:09;96348.56;;;-2.92;100.00
498;BME280;39559;48.630;9.162;2024-01-15T04:11:35;96347.66;;;-2.88;100.00
498;BME280;39559;48.630;9.162;2024-01-15T04:14:00;96345.13;;;-2.91;100.00
498;BME280;39559;48.630;9.162;2024-01-15T04:16:26;96348.50;;;-2.86;100.00
498;BME280;39559;48.630;9.162;2024-01-15T04:18:51;96345.06;;;-2.80;100.00
498;BME280;39559;48.630;9.162;2024-01-15T04:21:17;96339.09;;;-2.75;100.00
498;BME280;39559;48.630;9.162;2024-01-15T04:25:47;96348.38;;;-2.74;100.00
498;BME280;39559;48.630;9.162;2024-01-15T04:28:13;96339.06;;;-2.73;100.00
498;BME280;39559;48.630;9.162;2024-01-15T04:30:38;96341.56;;;-2.65;100.00
498;BME280;39559;48.630;9.162;2024-01-15T04:33:04;96336.44;;;-2.64;100.00
498;BME280;39559;48.630;9.162;2024-01-15T04:35:32;96332.25;;;-2.68;100.00
498;BME280;39559;48.630;9.162;2024-01-15T04:37:58;96327.97;;;-2.64;100.00
498;BME280;39559;48.630;9.162;2024-01-15T04:40:23;96342.38;;;-2.65;100.00
498;BME280;39559;48.630;9.162;2024-01-15T04:42:49;96330.44;;;-2.57;100.00
498;BME280;39559;48.630;9.162;2024-01-15T04:45:14;96346.56;;;-2.59;100.00
498;BME280;39559;48.630;9.162;2024-01-15T04:49:51;96348.22;;;-2.55;100.00
498;BME280;39559;48.630;9.162;2024-01-15T04:52:16;96349.09;;;-2.58;100.00
498;BME280;39559;48.630;9.162;2024-01-15T04:54:42;96349.09;;;-2.56;100.00
498;BME280;39559;48.630;9.162;2024-01-15T04:57:08;96344.84;;;-2.57;100.00
498;BME280;39559;48.630;9.162;2024-01-15T04:59:33;96346.56;;;-2.58;100.00
498;BME280;39559;48.630;9.162;2024-01-15T05:01:59;96339.78;;;-2.59;100.00
498;BME280;39559;48.630;9.162;2024-01-15T05:04:24;96351.66;;;-2.61;100.00
498;BME280;39559;48.630;9.162;2024-01-15T05:06:50;96360.00;;;-2.46;100.00
498;BME280;39559;48.630;9.162;2024-01-15T05:09:16;96355.81;;;-2.49;100.00
498;BME280;39559;48.630;9.162;2024-01-15T05:13:54;96357.50;;;-2.51;100.00
498;BME280;39559;48.630;9.162;2024-01-15T05:16:19;96359.13;;;-2.42;100.00
498;BME280;39559;48.630;9.162;2024-01-15T05:18:45;96363.28;;;-2.37;100.00
498;BME280;39559;48.630;9.162;2024-01-15T05:21:10;96369.09;;;-2.22;100.00
498;BME280;39559;48.630;9.162;2024-01-15T05:23:36;96360.59;;;-2.21;100.00
498;BME280;39559;48.630;9.162;2024-01-15T05:26:02;96357.28;;;-2.29;100.00
498;BME280;39559;48.630;9.162;2024-01-15T05:28:27;96359.88;;;-2.33;100.00
498;BME280;39559;48.630;9.162;2024-01-15T05:30:53;96370.81;;;-2.24;100.00
498;BME280;39559;48.630;9.162;2024-01-15T05:33:23;96364.97;;;-2.34;100.00
498;BME280;39559;48.630;9.162;2024-01-15T05:37:57;96352.38;;;-2.45;100.00
498;BME280;39559;48.630;9.162;2024-01-15T05:40:23;96347.31;;;-2.49;100.00
498;BME280;39559;48.630;9.162;2024-01-15T05:42:48;96340.59;;;-2.55;100.00
498;BME280;39559;48.630;9.162;2024-01-15T05:45:14;96346.47;;;-2.50;100.00
498;BME280;39559;48.630;9.162;2024-01-15T05:47:39;96346.47;;;-2.47;100.00
498;BME280;39559;48.630;9.162;2024-01-15T05:50:05;96340.56;;;-2.49;100.00
498;BME280;39559;48.630;9.162;2024-01-15T05:52:32;96336.28;;;-2.47;100.00
498;BME280;39559;48.630;9.162;2024-01-15T05:54:57;96341.50;;;-2.59;100.00
498;BME280;39559;48.630;9.162;2024-01-15T05:57:23;96343.13;;;-2.54;100.00
498;BME280;39559;48.630;9.162;2024-01-15T06:02:00;96338.94;;;-2.59;100.00
498;BME280;39559;48.630;9.162;2024-01-15T06:04:26;96335.59;;;-2.61;100.00
498;BME280;39559;48.630;9.162;2024-01-15T06:06:51;96333.88;;;-2.61;100.00
498;BME280;39559;48.630;9.162;2024-01-15T06:09:17;96337.28;;;-2.62;100.00
498;BME280;39559;48.630;9.162;2024-01-15T06:11:43;96337.31;;;-2.63;100.00
498;BME280;39559;48.630;9.162;2024-01-15T06:14:08;96332.22;;;-2.65;100.00
498;BME280;39559;48.630;9.162;2024-01-15T06:16:34;96346.59;;;-2.61;100.00
498;BME280;39559;48.630;9.162;2024-01-15T06:18:59;96338.97;;;-2.61;100.00
498;BME280;39559;48.630;9.162;2024-01-15T06:21:25;96332.16;;;-2.57;100.00
498;BME280;39559;48.630;9.162;2024-01-15T06:26:03;96321.97;;;-2.54;100.00
498;BME280;39559;48.630;9.162;2024-01-15T06:28:29;96325.44;;;-2.63;100.00
498;BME280;39559;48.630;9.162;2024-01-15T06:30:54;96320.31;;;-2.60;100.00
498;BME280;39559;48.630;9.162;2024-01-15T06:33:20;96320.25;;;-2.54;100.00
498;BME280;39559;48.630;9.162;2024-01-15T06:35:45;96310.06;;;-2.51;100.00
498;BME280;39559;48.630;9.162;2024-01-15T06:38:11;96318.59;;;-2.55;100.00
498;BME280;39559;48.630;9.162;2024-01-15T06:40:37;96299.09;;;-2.54;100.00
498;BME280;39559;48.630;9.162;2024-01-15T06:43:02;96290.53;;;-2.47;100.00
498;BME280;39559;48.630;9.162;2024-01-15T06:45:28;96293.94;;;-2.48;100.00
498;BME280;39559;48.630;9.162;2024-01-15T06:50:05;96286.28;;;-2.46;100.00
498;BME280;39559;48.630;9.162;2024-01-15T06:52:32;96282.91;;;-2.47;100.00
498;BME280;39559;48.630;9.162;2024-01-15T06:54:57;96281.19;;;-2.45;100.00
498;BME280;39559;48.630;9.162;2024-01-15T06:57:23;96271.00;;;-2.42;100.00
498;BME280;39559;48.630;9.162;2024-01-15T06:59:49;96291.28;;;-2.37;100.00
498;BME280;39559;48.630;9.162;2024-01-15T07:02:14;96274.38;;;-2.41;100.00
498;BME280;39559;48.630;9.162;2024-01-15T07:04:40;96270.91;;;-2.36;100.00
498;BME280;39559;48.630;9.162;2024-01-15T07:07:05;96263.22;;;-2.29;100.00
498;BME280;39559;48.630;9.162;2024-01-15T07:09:31;96268.31;;;-2.31;100.00
498;BME280;39559;48.630;9.162;2024-01-15T07:14:08;96260.72;;;-2.33;100.00
498;BME280;39559;48.630;9.162;2024-01-15T07:16:34;96271.66;;;-2.27;100.00
498;BME280;39559;48.630;9.162;2024-01-15T07:18:59;96264.88;;;-2.25;100.00
498;BME280;39559;48.630;9.162;2024-01-15T07:21:25;96270.00;;;-2.28;100.00
498;BME280;39559;48.630;9.162;2024-01-15T07:23:50;96268.25;;;-2.23;100.00
498;BME280;39559;48.630;9.162;2024-01-15T07:26:16;96278.41;;;-2.22;100.00
498;BME280;39559;48.630;9.162;2024-01-15T07:28:41;96281.78;;;-2.21;100.00
498;BME280;39559;48.630;9.162;2024-01-15T07:31:07;96280.88;;;-2.19;100.00
498;BME280;39559;48.630;9.162;2024-01-15T07:33:32;96268.25;;;-2.23;100.00
498;BME280;39559;48.630;9.162;2024-01-15T07:38:10;96278.31;;;-2.17;100.00
498;BME280;39559;48.630;9.162;2024-01-15T07:40:37;96277.47;;;-2.15;100.00
498;BME280;39559;48.630;9.162;2024-01-15T07:43:02;96282.47;;;-2.08;100.00
498;BME280;39559;48.630;9.162;2024-01-15T07:45:28;96285.03;;;-2.12;100.00
498;BME280;39559;48.630;9.162;2024-01-15T07:47:54;96280.81;;;-2.11;100.00
498;BME280;39559;48.630;9.162;2024-01-15T07:50:19;96280.69;;;-2.02;100.00
498;BME280;39559;48.630;9.162;2024-01-15T07:52:45;96274.72;;;-2.01;100.00
498;BME280;39559;48.630;9.162;2024-01-15T07:55:11;96267.09;;;-1.99;100.00
498;BME280;39559;48.630;9.162;2024-01-15T07:57:36;96279.81;;;-2.01;100.00
498;BME280;39559;48.630;9.162;2024-01-15T08:02:13;96266.13;;;-1.90;100.00
498;BME280;39559;48.630;9.162;2024-01-15T08:04:39;96275.50;;;-1.92;100.00
498;BME280;39559;48.630;9.162;2024-01-15T08:07:05;96287.34;;;-1.93;100.00
498;BME280;39559;48.630;9.162;2024-01-15T08:09:33;96277.97;;;-1.89;100.00
498;BME280;39559;48.630;9.162;2024-01-15T08:11:59;96286.47;;;-1.89;100.00
498;BME280;39559;48.630;9.162;2024-01-15T08:14:25;96274.47;;;-1.79;100.00
498;BME280;39559;48.630;9.162;2024-01-15T08:16:51;96291.47;;;-1.83;100.00
498;BME280;39559;48.630;9.162;2024-01-15T08:19:17;96286.38;;;-1.81;100.00
498;BME280;39559;48.630;9.162;2024-01-15T08:21:42;96275.25;;;-1.74;100.00
498;BME280;39559;48.630;9.162;2024-01-15T08:26:16;96277.00;;;-1.78;100.00
498;BME280;39559;48.630;9.162;2024-01-15T08:28:41;96280.22;;;-1.66;100.00
498;BME280;39559;48.630;9.162;2024-01-15T08:31:07;96285.31;;;-1.68;100.00
498;BME280;39559;48.630;9.162;2024-01-15T08:33:32;96275.13;;;-1.65;100.00
498;BME280;39559;48.630;9.162;2024-01-15T08:35:58;96284.41;;;-1.64;100.00
498;BME280;39559;48.630;9.162;2024-01-15T08:38:23;96283.56;;;-1.63;100.00
498;BME280;39559;48.630;9.162;2024-01-15T08:40:50;96286.84;;;-1.55;100.00
498;BME280;39559;48.630;9.162;2024-01-15T08:43:16;96279.31;;;-1.64;100.00
498;BME280;39559;48.630;9.162;2024-01-15T08:45:42;96273.41;;;-1.64;100.00
498;BME280;39559;48.630;9.162;2024-01-15T08:50:18;96279.16;;;-1.53;100.00
498;BME280;39559;48.630;9.162;2024-01-15T08:52:44;96271.53;;;-1.53;100.00
498;BME280;39559;48.630;9.162;2024-01-15T08:55:09;96275.50;;;-1.35;100.00
498;BME280;39559;48.630;9.162;2024-01-15T08:57:35;96278.84;;;-1.31;100.00
498;BME280;39559;48.630;9.162;2024-01-15T09:00:01;96280.47;;;-1.26;100.00
498;BME280;39559;48.630;9.162;2024-01-15T09:02:26;96278.00;;;-1.29;100.00
498;BME280;39559;48.630;9.162;2024-01-15T09:04:52;96294.13;;;-1.31;100.00
498;BME280;39559;48.630;9.162;2024-01-15T09:07:17;96287.91;;;-1.12;100.00
498;BME280;39559;48.630;9.162;2024-01-15T09:09:43;96287.94;;;-1.15;100.00
498;BME280;39559;48.630;9.162;2024-01-15T09:14:21;96281.25;;;-1.22;100.00
498;BME280;39559;48.630;9.162;2024-01-15T09:16:48;96277.84;;;-1.20;100.00
498;BME280;39559;48.630;9.162;2024-01-15T09:19:13;96277.75;;;-1.15;100.00
498;BME280;39559;48.630;9.162;2024-01-15T09:21:40;96275.22;;;-1.17;100.00
498;BME280;39559;48.630;9.162;2024-01-15T09:24:05;96271.78;;;-1.12;100.00
498;BME280;39559;48.630;9.162;2024-01-15T09:26:31;96266.56;;;-1.06;100.00
498;BME280;39559;48.630;9.162;2024-01-15T09:28:57;96253.78;;;-1.02;100.00
498;BME280;39559;48.630;9.162;2024-01-15T09:31:23;96257.13;;;-1.00;100.00
498;BME280;39559;48.630;9.162;2024-01-15T09:33:49;96256.16;;;-0.91;100.00
498;BME280;39559;48.630;9.162;2024-01-15T09:38:23;96257.84;;;-0.91;100.00
498;BME280;39559;48.630;9.162;2024-01-15T09:40:50;96243.25;;;-0.82;100.00
498;BME280;39559;48.630;9.162;2024-01-15T09:43:16;96237.22;;;-0.79;100.00
498;BME280;39559;48.630;9.162;2024-01-15T09:45:42;96230.50;;;-0.82;100.00
498;BME280;39559;48.630;9.162;2024-01-15T09:48:09;96230.31;;;-0.71;100.00
498;BME280;39559;48.630;9.162;2024-01-15T09:50:34;96230.19;;;-0.65;100.00
498;BME280;39559;48.630;9.162;2024-01-15T09:53:00;96232.78;;;-0.68;100.00
498;BME280;39559;48.630;9.162;2024-01-15T09:55:27;96226.00;;;-0.67;100.00
498;BME280;39559;48.630;9.162;2024-01-15T09:57:55;96230.97;;;-0.63;100.00
498;BME280;39559;48.630;9.162;2024-01-15T10:02:26;96237.72;;;-0.60;100.00
498;BME280;39559;48.630;9.162;2024-01-15T10:04:52;96232.56;;;-0.57;100.00
498;BME280;39559;48.630;9.162;2024-01-15T10:07:18;96232.50;;;-0.52;100.00
498;BME280;39559;48.630;9.162;2024-01-15T10:09:45;96234.25;;;-0.54;100.00
498;BME280;39559;48.630;9.162;2024-01-15T10:12:11;96226.53;;;-0.53;100.00
498;BME280;39559;48.630;9.162;2024-01-15T10:14:37;96227.28;;;-0.48;100.00
498;BME280;39559;48.630;9.162;2024-01-15T10:17:14;96214.38;;;-0.39;100.00
498;BME280;39559;48.630;9.162;2024-01-15T10:19:40;96217.84;;;-0.43;100.00
498;BME280;39559;48.630;9.162;2024-01-15T10:22:08;96209.13;;;-0.31;100.00
498;BME280;39559;48.630;9.162;2024-01-15T10:26:29;96205.81;;;-0.36;100.00
498;BME280;39559;48.630;9.162;2024-01-15T10:28:56;96204.91;;;-0.33;100.00
498;BME280;39559;48.630;9.162;2024-01-15T10:31:21;96194.59;;;-0.27;100.00
498;BME280;39559;48.630;9.162;2024-01-15T10:33:48;96196.47;;;-0.37;100.00
498;BME280;39559;48.630;9.162;2024-01-15T10:36:15;96203.25;;;-0.34;100.00
498;BME280;39559;48.630;9.162;2024-01-15T10:38:42;96195.53;;;-0.33;100.00
498;BME280;39559;48.630;9.162;2024-01-15T10:41:08;96192.97;;;-0.31;100.00
498;BME280;39559;48.630;9.162;2024-01-15T10:43:34;96200.31;;;-0.16;100.00
498;BME280;39559;48.630;9.162;2024-01-15T10:45:59;96191.19;;;-0.28;100.00
498;BME280;39559;48.630;9.162;2024-01-15T10:50:31;96194.28;;;-0.12;100.00
498;BME280;39559;48.630;9.162;2024-01-15T10:52:57;96192.53;;;-0.11;100.00
498;BME280;39559;48.630;9.162;2024-01-15T10:55:24;96189.50;;;-0.27;100.00
498;BME280;39559;48.630;9.162;2024-01-15T10:57:49;96187.78;;;-0.27;100.00
498;BME280;39559;48.630;9.162;2024-01-15T11:00:15;96178.97;;;-0.12;100.00
498;BME280;39559;48.630;9.162;2024-01-15T11:02:41;96188.47;;;-0.20;100.00
498;BME280;39559;48.630;9.162;2024-01-15T11:05:08;96187.34;;;-0.05;100.00
498;BME280;39559;48.630;9.162;2024-01-15T11:07:34;96184.91;;;-0.13;100.00
498;BME280;39559;48.630;9.162;2024-01-15T11:09:59;96192.09;;;-0.30;100.00
498;BME280;39559;48.630;9.162;2024-01-15T11:15:00;96196.47;;;-0.37;100.00
498;BME280;39559;48.630;9.162;2024-01-15T11:17:22;96189.81;;;-0.44;100.00
498;BME280;39559;48.630;9.162;2024-01-15T11:19:50;96191.41;;;-0.39;100.00
498;BME280;39559;48.630;9.162;2024-01-15T11:25:12;96160.91;;;-0.43;100.00
498;BME280;39559;48.630;9.162;2024-01-15T11:27:40;96161.03;;;-0.49;100.00
498;BME280;39559;48.630;9.162;2024-01-15T11:30:11;96159.16;;;-0.41;100.00
498;BME280;39559;48.630;9.162;2024-01-15T11:32:37;96156.56;;;-0.38;100.00
498;BME280;39559;48.630;9.162;2024-01-15T11:35:07;96160.72;;;-0.34;100.00
498;BME280;39559;48.630;9.162;2024-01-15T11:38:35;96148.13;;;-0.42;100.00
498;BME280;39559;48.630;9.162;2024-01-15T11:41:01;96147.34;;;-0.44;100.00
498;BME280;39559;48.630;9.162;2024-01-15T11:43:42;96161.78;;;-0.44;100.00
498;BME280;39559;48.630;9.162;2024-01-15T11:46:11;96156.78;;;-0.49;100.00
498;BME280;39559;48.630;9.162;2024-01-15T11:48:43;96160.91;;;-0.43;100.00
498;BME280;39559;48.630;9.162;2024-01-15T11:51:12;96165.25;;;-0.48;100.00
498;BME280;39559;48.630;9.162;2024-01-15T11:53:48;96160.00;;;-0.41;100.00
498;BME280;39559;48.630;9.162;2024-01-15T11:56:17;96165.94;;;-0.40;100.00
498;BME280;39559;48.630;9.162;2024-01-15T11:58:44;96168.47;;;-0.40;100.00
498;BME280;39559;48.630;9.162;2024-01-15T12:02:35;96178.47;;;-0.71;100.00
498;BME280;39559;48.630;9.162;2024-01-15T12:05:01;96190.31;;;-0.67;100.00
498;BME280;39559;48.630;9.162;2024-01-15T12:07:27;96173.34;;;-0.71;100.00
498;BME280;39559;48.630;9.162;2024-01-15T12:09:53;96181.81;;;-0.69;100.00
498;BME280;39559;48.630;9.162;2024-01-15T12:12:29;96193.69;;;-0.67;100.00
498;BME280;39559;48.630;9.162;2024-01-15T12:15:00;96189.78;;;-0.86;100.00
498;BME280;39559;48.630;9.162;2024-01-15T12:17:26;96180.47;;;-0.87;100.00
498;BME280;39559;48.630;9.162;2024-01-15T12:19:52;96189.00;;;-0.90;100.00
498;BME280;39559;48.630;9.162;2024-01-15T12:22:17;96194.22;;;-0.96;100.00
498;BME280;39559;48.630;9.162;2024-01-15T12:26:39;96184.72;;;-0.88;100.00
498;BME280;39559;48.630;9.162;2024-01-15T12:29:08;96191.16;;;-1.15;100.00
498;BME280;39559;48.630;9.162;2024-01-15T12:31:34;96197.94;;;-1.16;100.00
498;BME280;39559;48.630;9.162;2024-01-15T12:34:01;96185.06;;;-1.06;100.00
498;BME280;39559;48.630;9.162;2024-01-15T12:36:30;96178.97;;;-0.98;100.00
498;BME280;39559;48.630;9.162;2024-01-15T12:38:59;96189.94;;;-0.94;100.00
498;BME280;39559;48.630;9.162;2024-01-15T12:41:25;96198.50;;;-0.98;100.00
498;BME280;39559;48.630;9.162;2024-01-15T12:43:50;96196.16;;;-1.10;100.00
498;BME280;39559;48.630;9.162;2024-01-15T12:46:16;96206.19;;;-1.01;100.00
498;BME280;39559;48.630;9.162;2024-01-15T12:50:42;96203.72;;;-1.06;100.00
498;BME280;39559;48.630;9.162;2024-01-15T12:53:09;96218.16;;;-1.05;100.00
498;BME280;39559;48.630;9.162;2024-01-15T12:55:34;96217.34;;;-1.07;100.00
498;BME280;39559;48.630;9.162;2024-01-15T12:58:00;96214.09;;;-1.17;100.00
498;BME280;39559;48.630;9.162;2024-01-15T13:00:25;96216.53;;;-1.09;100.00
498;BME280;39559;48.630;9.162;2024-01-15T13:02:51;96218.28;;;-1.12;100.00
498;BME280;39559;48.630;9.162;2024-01-15T13:05:17;96219.88;;;-1.07;100.00
498;BME280;39559;48.630;9.162;2024-01-15T13:07:43;96214.72;;;-1.04;100.00
498;BME280;39559;48.630;9.162;2024-01-15T13:10:09;96218.22;;;-1.09;100.00
498;BME280;39559;48.630;9.162;2024-01-15T13:14:43;96227.19;;;-0.87;100.00
498;BME280;39559;48.630;9.162;2024-01-15T13:17:09;96223.91;;;-0.93;100.00
498;BME280;39559;48.630;9.162;2024-01-15T13:19:34;96228.97;;;-0.92;100.00
498;BME280;39559;48.630;9.162;2024-01-15T13:22:00;96234.28;;;-1.04;100.00
498;BME280;39559;48.630;9.162;2024-01-15T13:24:26;96244.41;;;-1.01;100.00
498;BME280;39559;48.630;9.162;2024-01-15T13:26:51;96243.66;;;-1.08;100.00
498;BME280;39559;48.630;9.162;2024-01-15T13:29:17;96235.22;;;-1.10;100.00
498;BME280;39559;48.630;9.162;2024-01-15T13:31:43;96235.34;;;-1.16;100.00
498;BME280;39559;48.630;9.162;2024-01-15T13:34:11;96242.97;;;-1.16;100.00
498;BME280;39559;48.630;9.162;2024-01-15T13:38:45;96265.03;;;-1.17;100.00
498;BME280;39559;48.630;9.162;2024-01-15T13:41:11;96260.78;;;-1.14;100.00
498;BME280;39559;48.630;9.162;2024-01-15T13:43:36;96264.16;;;-1.14;100.00
498;BME280;39559;48.630;9.162;2024-01-15T13:46:02;96265.09;;;-1.18;100.00
498;BME280;39559;48.630;9.162;2024-01-15T13:48:30;96267.47;;;-1.07;100.00
498;BME280;39559;48.630;9.162;2024-01-15T13:50:59;96271.81;;;-1.16;100.00
498;BME280;39559;48.630;9.162;2024-01-15T13:53:25;96280.25;;;-1.10;100.00
498;BME280;39559;48.630;9.162;2024-01-15T13:55:51;96277.59;;;-1.04;100.00
498;BME280;39559;48.630;9.162;2024-01-15T13:58:17;96273.38;;;-1.05;100.00
498;BME280;39559;48.630;9.162;2024-01-15T14:02:48;96271.56;;;-1.00;100.00
498;BME280;39559;48.630;9.162;2024-01-15T14:05:13;96275.78;;;-0.98;100.00
498;BME280;39559;48.630;9.162;2024-01-15T14:07:59;96283.44;;;-0.98;100.00
498;BME280;39559;48.630;9.162;2024-01-15T14:10:26;96285.97;;;-0.98;100.00
498;BME280;39559;48.630;9.162;2024-01-15T14:12:53;96288.56;;;-1.01;100.00
498;BME280;39559;48.630;9.162;2024-01-15T14:15:20;96285.03;;;-0.92;100.00
498;BME280;39559;48.630;9.162;2024-01-15T14:17:48;96292.94;;;-1.07;100.00
498;BME280;39559;48.630;9.162;2024-01-15T14:20:15;96297.91;;;-1.01;100.00